sensor_id;sensor_type;location;lat;lon;timestamp;pressure;altitude;pressure_sealevel;temperature;humidity
73551;BME280;61816;53.582;10.096;2022-10-03T00:01:45;101793.22;;;11.95;100.00
73551;BME280;61816;53.582;10.096;2022-10-03T00:04:45;101800.06;;;12.00;100.00
73551;BME280;61816;53.582;10.096;2022-10-03T00:07:43;101797.69;;;11.87;100.00
73551;BME280;61816;53.582;10.096;2022-10-03T00:10:35;101800.78;;;11.92;100.00
73551;BME280;61816;53.582;10.096;2022-10-03T00:15:59;101808.34;;;11.79;100.00
73551;BME280;61816;53.582;10.096;2022-10-03T00:18:39;101803.50;;;11.92;100.00
73551;BME280;61816;53.582;10.096;2022-10-03T00:21:42;101812.78;;;11.99;100.00
73551;BME280;61816;53.582;10.096;2022-10-03T00:24:47;101812.66;;;11.91;100.00
73551;BME280;61816;53.582;10.096;2022-10-03T00:33:05;101813.63;;;12.09;100.00
73551;BME280;61816;53.582;10.096;2022-10-03T00:36:00;101818.06;;;12.10;100.00
73551;BME280;61816;53.582;10.096;2022-10-03T00:41:37;101808.66;;;11.95;100.00
73551;BME280;61816;53.582;10.096;2022-10-03T00:50:13;101819.22;;;11.98;100.00
73551;BME280;61816;53.582;10.096;2022-10-03T00:58:43;101816.66;;;12.06;100.00
73551;BME280;61816;53.582;10.096;2022-10-03T01:07:11;101824.81;;;11.87;100.00
73551;BME280;61816;53.582;10.096;2022-10-03T01:10:02;101824.94;;;11.95;100.00
73551;BME280;61816;53.582;10.096;2022-10-03T01:12:46;101825.22;;;11.92;100.00
73551;BME280;61816;53.582;10.096;2022-10-03T01:15:42;101832.78;;;12.08;100.00
73551;BME280;61816;53.582;10.096;2022-10-03T01:20:48;101834.09;;;11.94;100.00
73551;BME280;61816;53.582;10.096;2022-10-03T01:26:09;101840.94;;;11.98;100.00
73551;BME280;61816;53.582;10.096;2022-10-03T01:28:53;101836.47;;;12.16;100.00
73551;BME280;61816;53.582;10.096;2022-10-03T01:32:11;101841.75;;;12.28;100.00
73551;BME280;61816;53.582;10.096;2022-10-03T01:34:46;101846.34;;;12.17;100.00
73551;BME280;61816;53.582;10.096;2022-10-03T01:37:31;101840.66;;;12.01;100.00
73551;BME280;61816;53.582;10.096;2022-10-03T01:40:12;101841.34;;;12.03;100.00
73551;BME280;61816;53.582;10.096;2022-10-03T01:42:55;101844.66;;;12.07;100.00
73551;BME280;61816;53.582;10.096;2022-10-03T01:45:41;101854.66;;;11.97;100.00
73551;BME280;61816;53.582;10.096;2022-10-03T01:48:18;101856.94;;;12.01;100.00
73551;BME280;61816;53.582;10.096;2022-10-03T01:51:28;101859.50;;;11.93;100.00
73551;BME280;61816;53.582;10.096;2022-10-03T01:54:17;101859.22;;;11.86;100.00
73551;BME280;61816;53.582;10.096;2022-10-03T01:57:00;101870.03;;;11.77;100.00
73551;BME280;61816;53.582;10.096;2022-10-03T01:59:34;101862.91;;;11.76;100.00
73551;BME280;61816;53.582;10.096;2022-10-03T02:02:11;101870.34;;;11.74;100.00
73551;BME280;61816;53.582;10.096;2022-10-03T02:04:45;101878.75;;;11.71;100.00
73551;BME280;61816;53.582;10.096;2022-10-03T02:10:12;101887.56;;;11.53;100.00
73551;BME280;61816;53.582;10.096;2022-10-03T02:16:01;101886.03;;;11.70;100.00
73551;BME280;61816;53.582;10.096;2022-10-03T02:18:46;101880.34;;;11.83;100.00
73551;BME280;61816;53.582;10.096;2022-10-03T02:24:21;101885.44;;;11.66;100.00
73551;BME280;61816;53.582;10.096;2022-10-03T02:30:02;101888.00;;;11.49;100.00
73551;BME280;61816;53.582;10.096;2022-10-03T02:32:58;101898.00;;;11.48;100.00
73551;BME280;61816;53.582;10.096;2022-10-03T02:44:04;101907.69;;;11.41;100.00
73551;BME280;61816;53.582;10.096;2022-10-03T02:49:39;101906.47;;;11.34;100.00
73551;BME280;61816;53.582;10.096;2022-10-03T03:13:31;101912.13;;;11.11;100.00
73551;BME280;61816;53.582;10.096;2022-10-03T03:30:05;101930.38;;;11.09;100.00
73551;BME280;61816;53.582;10.096;2022-10-03T03:35:29;101940.94;;;11.12;100.00
73551;BME280;61816;53.582;10.096;2022-10-03T03:43:30;101940.31;;;10.99;100.00
73551;BME280;61816;53.582;10.096;2022-10-03T03:51:43;101944.19;;;11.06;100.00
73551;BME280;61816;53.582;10.096;2022-10-03T03:57:26;101931.94;;;11.02;100.00
73551;BME280;61816;53.582;10.096;2022-10-03T04:12:00;101946.38;;;11.12;100.00
73551;BME280;61816;53.582;10.096;2022-10-03T04:14:53;101949.53;;;11.18;100.00
73551;BME280;61816;53.582;10.096;2022-10-03T04:17:59;101951.25;;;11.19;100.00
73551;BME280;61816;53.582;10.096;2022-10-03T04:26:33;101962.81;;;10.90;100.00
73551;BME280;61816;53.582;10.096;2022-10-03T04:31:42;101954.28;;;10.74;100.00
73551;BME280;61816;53.582;10.096;2022-10-03T04:37:00;101963.06;;;10.87;100.00
73551;BME280;61816;53.582;10.096;2022-10-03T04:50:57;101966.22;;;10.92;100.00
73551;BME280;61816;53.582;10.096;2022-10-03T04:53:52;101973.25;;;10.74;100.00
73551;BME280;61816;53.582;10.096;2022-10-03T04:56:52;101965.38;;;10.71;100.00
73551;BME280;61816;53.582;10.096;2022-10-03T04:59:33;101971.00;;;10.79;100.00
73551;BME280;61816;53.582;10.096;2022-10-03T05:05:24;101967.03;;;10.83;100.00
73551;BME280;61816;53.582;10.096;2022-10-03T05:13:43;101974.88;;;10.86;100.00
73551;BME280;61816;53.582;10.096;2022-10-03T05:16:25;101987.53;;;10.76;100.00
73551;BME280;61816;53.582;10.096;2022-10-03T05:21:41;101987.53;;;10.76;100.00
73551;BME280;61816;53.582;10.096;2022-10-03T05:24:21;101984.06;;;10.74;100.00
73551;BME280;61816;53.582;10.096;2022-10-03T05:40:39;101999.28;;;10.86;100.00
73551;BME280;61816;53.582;10.096;2022-10-03T05:43:31;102001.28;;;10.84;100.00
73551;BME280;61816;53.582;10.096;2022-10-03T05:49:06;102001.09;;;11.06;100.00
73551;BME280;61816;53.582;10.096;2022-10-03T05:54:44;102023.06;;;11.03;100.00
73551;BME280;61816;53.582;10.096;2022-10-03T05:57:29;102015.34;;;10.99;100.00
73551;BME280;61816;53.582;10.096;2022-10-03T06:14:19;102017.75;;;11.23;100.00
73551;BME280;61816;53.582;10.096;2022-10-03T06:31:17;102032.69;;;11.68;100.00
73551;BME280;61816;53.582;10.096;2022-10-03T06:37:07;102041.13;;;11.75;100.00
73551;BME280;61816;53.582;10.096;2022-10-03T06:40:00;102047.41;;;11.76;100.00
73551;BME280;61816;53.582;10.096;2022-10-03T06:42:50;102052.03;;;11.85;100.00
73551;BME280;61816;53.582;10.096;2022-10-03T06:53:24;102052.13;;;12.23;100.00
73551;BME280;61816;53.582;10.096;2022-10-03T06:59:15;102053.59;;;12.28;100.00
73551;BME280;61816;53.582;10.096;2022-10-03T07:17:43;102071.59;;;12.29;100.00
73551;BME280;61816;53.582;10.096;2022-10-03T07:22:54;102063.31;;;12.40;100.00
73551;BME280;61816;53.582;10.096;2022-10-03T07:25:40;102061.91;;;12.55;99.85
73551;BME280;61816;53.582;10.096;2022-10-03T07:36:27;102084.06;;;12.99;98.52
73551;BME280;61816;53.582;10.096;2022-10-03T07:47:59;102091.22;;;12.90;98.92
73551;BME280;61816;53.582;10.096;2022-10-03T07:50:47;102089.66;;;13.07;98.18
73551;BME280;61816;53.582;10.096;2022-10-03T08:05:10;102092.22;;;13.38;97.82
73551;BME280;61816;53.582;10.096;2022-10-03T08:28:24;102101.56;;;14.27;94.03
73551;BME280;61816;53.582;10.096;2022-10-03T08:31:38;102099.72;;;14.46;93.70
73551;BME280;61816;53.582;10.096;2022-10-03T08:34:39;102101.66;;;14.63;93.23
73551;BME280;61816;53.582;10.096;2022-10-03T09:01:17;102115.00;;;15.02;90.19
73551;BME280;61816;53.582;10.096;2022-10-03T09:10:07;102114.22;;;15.35;89.85
73551;BME280;61816;53.582;10.096;2022-10-03T09:18:42;102123.28;;;15.18;89.34
73551;BME280;61816;53.582;10.096;2022-10-03T09:21:24;102106.94;;;15.18;89.77
73551;BME280;61816;53.582;10.096;2022-10-03T09:24:57;102125.59;;;15.48;89.08
73551;BME280;61816;53.582;10.096;2022-10-03T09:30:02;102122.38;;;15.27;89.16
73551;BME280;61816;53.582;10.096;2022-10-03T09:32:48;102128.16;;;14.88;90.87
73551;BME280;61816;53.582;10.096;2022-10-03T10:01:28;102127.69;;;16.15;86.45
73551;BME280;61816;53.582;10.096;2022-10-03T10:13:12;102120.66;;;16.54;85.49
73551;BME280;61816;53.582;10.096;2022-10-03T10:19:14;102099.78;;;16.37;86.37
73551;BME280;61816;53.582;10.096;2022-10-03T10:30:21;102100.19;;;16.08;85.57
73551;BME280;61816;53.582;10.096;2022-10-03T10:36:04;102108.69;;;15.71;91.31
73551;BME280;61816;53.582;10.096;2022-10-03T11:02:43;102106.50;;;16.09;85.02
73551;BME280;61816;53.582;10.096;2022-10-03T11:11:20;102105.81;;;15.72;89.26
73551;BME280;61816;53.582;10.096;2022-10-03T11:19:33;102096.56;;;15.99;87.61
73551;BME280;61816;53.582;10.096;2022-10-03T11:38:03;102124.34;;;16.29;85.89
73551;BME280;61816;53.582;10.096;2022-10-03T11:44:07;102123.69;;;15.67;86.28
73551;BME280;61816;53.582;10.096;2022-10-03T11:52:28;102120.84;;;15.77;86.73
73551;BME280;61816;53.582;10.096;2022-10-03T11:55:19;102115.25;;;15.78;87.16
73551;BME280;61816;53.582;10.096;2022-10-03T11:58:15;102121.44;;;15.88;87.24
73551;BME280;61816;53.582;10.096;2022-10-03T12:00:53;102119.34;;;16.16;86.60
73551;BME280;61816;53.582;10.096;2022-10-03T12:03:27;102125.19;;;16.80;84.94
73551;BME280;61816;53.582;10.096;2022-10-03T12:06:23;102127.75;;;16.81;84.34
73551;BME280;61816;53.582;10.096;2022-10-03T12:09:33;102109.75;;;16.63;84.30
73551;BME280;61816;53.582;10.096;2022-10-03T12:12:16;102126.50;;;16.60;84.91
73551;BME280;61816;53.582;10.096;2022-10-03T12:14:46;102122.81;;;16.35;86.07
73551;BME280;61816;53.582;10.096;2022-10-03T12:17:27;102110.34;;;16.24;86.34
73551;BME280;61816;53.582;10.096;2022-10-03T12:20:14;102117.50;;;16.25;86.40
73551;BME280;61816;53.582;10.096;2022-10-03T12:22:51;102109.31;;;16.33;86.68
73551;BME280;61816;53.582;10.096;2022-10-03T12:25:35;102115.66;;;15.91;86.68
73551;BME280;61816;53.582;10.096;2022-10-03T12:28:08;102138.50;;;15.90;87.06
73551;BME280;61816;53.582;10.096;2022-10-03T12:36:13;102113.78;;;16.42;86.70
73551;BME280;61816;53.582;10.096;2022-10-03T12:47:34;102116.13;;;16.21;87.20
73551;BME280;61816;53.582;10.096;2022-10-03T12:55:59;102124.41;;;16.45;86.01
73551;BME280;61816;53.582;10.096;2022-10-03T13:01:45;102126.72;;;16.24;87.15
73551;BME280;61816;53.582;10.096;2022-10-03T13:04:59;102123.63;;;16.19;87.39
73551;BME280;61816;53.582;10.096;2022-10-03T13:15:59;102120.47;;;15.97;88.35
73551;BME280;61816;53.582;10.096;2022-10-03T13:18:43;102126.59;;;15.91;90.46
73551;BME280;61816;53.582;10.096;2022-10-03T13:21:18;102122.75;;;15.84;90.33
73551;BME280;61816;53.582;10.096;2022-10-03T13:23:51;102121.66;;;15.69;90.42
73551;BME280;61816;53.582;10.096;2022-10-03T13:31:57;102116.19;;;15.69;91.31
73551;BME280;61816;53.582;10.096;2022-10-03T13:34:30;102105.38;;;15.85;88.79
73551;BME280;61816;53.582;10.096;2022-10-03T13:37:16;102113.66;;;16.10;89.14
73551;BME280;61816;53.582;10.096;2022-10-03T13:39:54;102115.00;;;15.97;88.68
73551;BME280;61816;53.582;10.096;2022-10-03T13:42:37;102110.91;;;16.01;86.63
73551;BME280;61816;53.582;10.096;2022-10-03T13:45:14;102109.59;;;16.14;86.97
73551;BME280;61816;53.582;10.096;2022-10-03T13:47:50;102107.28;;;16.35;86.06
73551;BME280;61816;53.582;10.096;2022-10-03T13:59:06;102115.91;;;16.57;85.46
73551;BME280;61816;53.582;10.096;2022-10-03T14:02:12;102104.59;;;16.43;84.79
73551;BME280;61816;53.582;10.096;2022-10-03T14:04:52;102109.72;;;16.46;84.06
73551;BME280;61816;53.582;10.096;2022-10-03T14:10:37;102100.47;;;16.47;84.01
73551;BME280;61816;53.582;10.096;2022-10-03T14:16:02;102105.38;;;16.70;83.24
73551;BME280;61816;53.582;10.096;2022-10-03T14:18:51;102095.81;;;16.90;82.14
73551;BME280;61816;53.582;10.096;2022-10-03T14:21:43;102102.25;;;16.65;83.14
73551;BME280;61816;53.582;10.096;2022-10-03T14:24:41;102107.56;;;16.74;82.91
73551;BME280;61816;53.582;10.096;2022-10-03T14:32:41;102106.94;;;16.30;85.24
73551;BME280;61816;53.582;10.096;2022-10-03T14:35:35;102108.13;;;16.36;85.08
73551;BME280;61816;53.582;10.096;2022-10-03T14:41:19;102103.50;;;16.28;85.98
73551;BME280;61816;53.582;10.096;2022-10-03T14:44:09;102090.75;;;16.45;85.25
73551;BME280;61816;53.582;10.096;2022-10-03T14:46:41;102103.66;;;16.26;85.86
73551;BME280;61816;53.582;10.096;2022-10-03T14:49:16;102099.50;;;16.57;85.02
73551;BME280;61816;53.582;10.096;2022-10-03T14:51:50;102094.13;;;16.31;85.60
73551;BME280;61816;53.582;10.096;2022-10-03T14:54:23;102107.44;;;16.25;85.82
73551;BME280;61816;53.582;10.096;2022-10-03T14:56:52;102092.06;;;16.33;86.23
73551;BME280;61816;53.582;10.096;2022-10-03T14:59:33;102097.28;;;16.10;87.29
73551;BME280;61816;53.582;10.096;2022-10-03T15:02:13;102102.59;;;15.77;88.85
73551;BME280;61816;53.582;10.096;2022-10-03T15:04:42;102107.69;;;16.06;87.83
73551;BME280;61816;53.582;10.096;2022-10-03T15:07:08;102105.38;;;15.85;88.66
73551;BME280;61816;53.582;10.096;2022-10-03T15:12:19;102102.47;;;15.87;89.42
73551;BME280;61816;53.582;10.096;2022-10-03T15:17:42;102107.09;;;15.86;89.66
73551;BME280;61816;53.582;10.096;2022-10-03T15:20:10;102095.13;;;15.87;90.05
73551;BME280;61816;53.582;10.096;2022-10-03T15:22:39;102095.41;;;15.76;90.74
73551;BME280;61816;53.582;10.096;2022-10-03T15:27:56;102092.72;;;15.84;90.77
73551;BME280;61816;53.582;10.096;2022-10-03T15:30:28;102093.19;;;15.71;91.03
73551;BME280;61816;53.582;10.096;2022-10-03T15:33:03;102097.84;;;15.61;91.54
73551;BME280;61816;53.582;10.096;2022-10-03T15:35:32;102096.81;;;15.80;90.72
73551;BME280;61816;53.582;10.096;2022-10-03T15:38:10;102099.06;;;15.59;90.42
73551;BME280;61816;53.582;10.096;2022-10-03T15:40:43;102089.13;;;15.58;90.64
73551;BME280;61816;53.582;10.096;2022-10-03T15:45:39;102097.09;;;15.69;89.42
73551;BME280;61816;53.582;10.096;2022-10-03T15:48:10;102085.13;;;15.44;89.53
73551;BME280;61816;53.582;10.096;2022-10-03T15:50:39;102095.31;;;15.60;89.02
73551;BME280;61816;53.582;10.096;2022-10-03T15:53:24;102083.63;;;15.76;88.29
73551;BME280;61816;53.582;10.096;2022-10-03T15:56:11;102087.97;;;15.60;88.82
73551;BME280;61816;53.582;10.096;2022-10-03T15:58:50;102080.63;;;15.61;88.33
73551;BME280;61816;53.582;10.096;2022-10-03T16:03:56;102076.47;;;15.74;87.80
73551;BME280;61816;53.582;10.096;2022-10-03T16:06:38;102081.13;;;15.90;87.03
73551;BME280;61816;53.582;10.096;2022-10-03T16:09:23;102075.38;;;15.93;86.82
73551;BME280;61816;53.582;10.096;2022-10-03T16:12:06;102073.88;;;15.65;87.63
73551;BME280;61816;53.582;10.096;2022-10-03T16:14:41;102070.34;;;15.55;87.83
73551;BME280;61816;53.582;10.096;2022-10-03T16:17:18;102068.31;;;15.57;87.70
73551;BME280;61816;53.582;10.096;2022-10-03T16:19:59;102076.78;;;15.45;88.35
73551;BME280;61816;53.582;10.096;2022-10-03T16:22:42;102078.81;;;15.43;88.49
73551;BME280;61816;53.582;10.096;2022-10-03T16:26:02;102066.09;;;15.26;89.54
73551;BME280;61816;53.582;10.096;2022-10-03T16:28:13;102068.66;;;15.28;89.71
73551;BME280;61816;53.582;10.096;2022-10-03T16:31:04;102078.56;;;15.11;90.50
73551;BME280;61816;53.582;10.096;2022-10-03T16:33:39;102080.59;;;15.09;90.85
73551;BME280;61816;53.582;10.096;2022-10-03T16:36:16;102079.53;;;15.02;91.39
73551;BME280;61816;53.582;10.096;2022-10-03T16:38:45;102080.38;;;14.84;92.65
73551;BME280;61816;53.582;10.096;2022-10-03T16:41:28;102074.19;;;14.74;93.19
73551;BME280;61816;53.582;10.096;2022-10-03T16:44:01;102081.41;;;14.83;93.00
73551;BME280;61816;53.582;10.096;2022-10-03T16:46:33;102085.69;;;14.86;93.27
73551;BME280;61816;53.582;10.096;2022-10-03T16:49:01;102079.75;;;14.90;93.24
73551;BME280;61816;53.582;10.096;2022-10-03T16:52:09;102084.38;;;14.72;94.18
73551;BME280;61816;53.582;10.096;2022-10-03T16:54:36;102083.50;;;14.72;94.33
73551;BME280;61816;53.582;10.096;2022-10-03T16:57:10;102077.06;;;14.55;95.40
73551;BME280;61816;53.582;10.096;2022-10-03T16:59:37;102080.09;;;14.70;94.88
73551;BME280;61816;53.582;10.096;2022-10-03T17:02:13;102076.44;;;14.61;95.18
73551;BME280;61816;53.582;10.096;2022-10-03T17:04:41;102078.19;;;14.52;95.71
73551;BME280;61816;53.582;10.096;2022-10-03T17:07:14;102079.47;;;14.30;96.79
73551;BME280;61816;53.582;10.096;2022-10-03T17:09:45;102074.50;;;14.44;96.77
73551;BME280;61816;53.582;10.096;2022-10-03T17:12:20;102078.53;;;14.39;97.11
73551;BME280;61816;53.582;10.096;2022-10-03T17:14:51;102079.91;;;14.53;96.60
73551;BME280;61816;53.582;10.096;2022-10-03T17:17:39;102081.19;;;14.31;97.74
73551;BME280;61816;53.582;10.096;2022-10-03T17:20:11;102080.50;;;14.29;98.11
73551;BME280;61816;53.582;10.096;2022-10-03T17:22:43;102077.44;;;14.32;97.75
73551;BME280;61816;53.582;10.096;2022-10-03T17:34:46;102079.41;;;14.22;98.95
73551;BME280;61816;53.582;10.096;2022-10-03T17:37:39;102082.41;;;14.19;99.24
73551;BME280;61816;53.582;10.096;2022-10-03T17:43:01;102083.94;;;14.04;100.00
73551;BME280;61816;53.582;10.096;2022-10-03T17:51:00;102099.19;;;13.87;100.00
73551;BME280;61816;53.582;10.096;2022-10-03T17:53:35;102092.28;;;13.93;100.00
73551;BME280;61816;53.582;10.096;2022-10-03T17:56:08;102094.59;;;13.88;100.00
73551;BME280;61816;53.582;10.096;2022-10-03T17:58:38;102086.69;;;13.94;100.00
73551;BME280;61816;53.582;10.096;2022-10-03T18:01:11;102090.91;;;13.79;100.00
73551;BME280;61816;53.582;10.096;2022-10-03T18:03:52;102097.75;;;13.93;100.00
73551;BME280;61816;53.582;10.096;2022-10-03T18:08:54;102100.13;;;13.68;100.00
73551;BME280;61816;53.582;10.096;2022-10-03T18:11:23;102097.19;;;13.89;100.00
73551;BME280;61816;53.582;10.096;2022-10-03T18:13:53;102089.47;;;13.84;100.00
73551;BME280;61816;53.582;10.096;2022-10-03T18:16:33;102088.63;;;13.74;100.00
73551;BME280;61816;53.582;10.096;2022-10-03T18:21:59;102098.13;;;13.70;100.00
73551;BME280;61816;53.582;10.096;2022-10-03T18:30:40;102096.97;;;13.73;100.00
73551;BME280;61816;53.582;10.096;2022-10-03T18:33:13;102095.84;;;13.56;100.00
73551;BME280;61816;53.582;10.096;2022-10-03T18:35:43;102095.00;;;13.65;100.00
73551;BME280;61816;53.582;10.096;2022-10-03T18:38:18;102101.56;;;13.72;100.00
73551;BME280;61816;53.582;10.096;2022-10-03T18:40:52;102098.13;;;13.70;100.00
73551;BME280;61816;53.582;10.096;2022-10-03T18:45:54;102109.28;;;13.67;100.00
73551;BME280;61816;53.582;10.096;2022-10-03T18:48:30;102105.03;;;13.55;100.00
73551;BME280;61816;53.582;10.096;2022-10-03T18:51:11;102104.44;;;13.71;100.00
73551;BME280;61816;53.582;10.096;2022-10-03T18:53:44;102101.31;;;13.56;100.00
73551;BME280;61816;53.582;10.096;2022-10-03T18:56:24;102098.19;;;13.51;100.00
73551;BME280;61816;53.582;10.096;2022-10-03T18:59:07;102097.88;;;13.54;100.00
73551;BME280;61816;53.582;10.096;2022-10-03T19:04:06;102103.44;;;13.62;100.00
73551;BME280;61816;53.582;10.096;2022-10-03T19:06:35;102100.75;;;13.52;100.00
73551;BME280;61816;53.582;10.096;2022-10-03T19:12:08;102102.19;;;13.47;100.00
73551;BME280;61816;53.582;10.096;2022-10-03T19:14:46;102091.47;;;13.36;100.00
73551;BME280;61816;53.582;10.096;2022-10-03T19:17:28;102100.38;;;13.38;100.00
73551;BME280;61816;53.582;10.096;2022-10-03T19:20:09;102101.66;;;13.34;100.00
73551;BME280;61816;53.582;10.096;2022-10-03T19:22:38;102103.91;;;13.48;100.00
73551;BME280;61816;53.582;10.096;2022-10-03T19:25:17;102102.47;;;13.53;100.00
73551;BME280;61816;53.582;10.096;2022-10-03T19:27:54;102103.38;;;13.44;100.00
73551;BME280;61816;53.582;10.096;2022-10-03T19:30:26;102102.50;;;13.44;100.00
73551;BME280;61816;53.582;10.096;2022-10-03T19:33:01;102101.94;;;13.50;100.00
73551;BME280;61816;53.582;10.096;2022-10-03T19:35:29;102100.75;;;13.43;100.00
73551;BME280;61816;53.582;10.096;2022-10-03T19:38:14;102096.22;;;13.34;100.00
73551;BME280;61816;53.582;10.096;2022-10-03T19:43:33;102098.47;;;13.48;100.00
73551;BME280;61816;53.582;10.096;2022-10-03T19:46:25;102105.63;;;13.49;100.00
73551;BME280;61816;53.582;10.096;2022-10-03T19:51:25;102107.78;;;13.45;100.00
73551;BME280;61816;53.582;10.096;2022-10-03T19:53:54;102109.19;;;13.59;100.00
73551;BME280;61816;53.582;10.096;2022-10-03T19:56:23;102111.91;;;13.49;100.00
73551;BME280;61816;53.582;10.096;2022-10-03T19:59:00;102103.63;;;13.51;100.00
73551;BME280;61816;53.582;10.096;2022-10-03T20:01:38;102105.34;;;13.52;100.00
73551;BME280;61816;53.582;10.096;2022-10-03T20:04:06;102120.53;;;13.35;100.00
73551;BME280;61816;53.582;10.096;2022-10-03T20:06:38;102121.13;;;13.39;100.00
73551;BME280;61816;53.582;10.096;2022-10-03T20:09:20;102107.63;;;13.47;100.00
73551;BME280;61816;53.582;10.096;2022-10-03T20:12:00;102109.03;;;13.61;100.00
73551;BME280;61816;53.582;10.096;2022-10-03T20:14:37;102105.34;;;13.52;100.00
73551;BME280;61816;53.582;10.096;2022-10-03T20:17:13;102104.50;;;13.42;100.00
73551;BME280;61816;53.582;10.096;2022-10-03T20:20:03;102104.22;;;13.45;100.00
73551;BME280;61816;53.582;10.096;2022-10-03T20:22:32;102091.91;;;13.41;100.00
73551;BME280;61816;53.582;10.096;2022-10-03T20:24:59;102092.22;;;13.38;100.00
73551;BME280;61816;53.582;10.096;2022-10-03T20:32:35;102095.94;;;13.37;100.00
73551;BME280;61816;53.582;10.096;2022-10-03T20:35:02;102086.22;;;13.24;100.00
73551;BME280;61816;53.582;10.096;2022-10-03T20:37:42;102084.47;;;13.23;100.00
73551;BME280;61816;53.582;10.096;2022-10-03T20:40:20;102091.66;;;13.24;100.00
73551;BME280;61816;53.582;10.096;2022-10-03T20:42:51;102092.50;;;13.15;100.00
73551;BME280;61816;53.582;10.096;2022-10-03T20:45:22;102087.63;;;13.19;100.00
73551;BME280;61816;53.582;10.096;2022-10-03T20:47:59;102085.06;;;13.17;100.00
73551;BME280;61816;53.582;10.096;2022-10-03T20:50:37;102088.22;;;13.22;100.00
73551;BME280;61816;53.582;10.096;2022-10-03T20:56:08;102094.22;;;13.26;100.00
73551;BME280;61816;53.582;10.096;2022-10-03T20:58:47;102089.06;;;13.33;100.00
73551;BME280;61816;53.582;10.096;2022-10-03T21:01:16;102098.78;;;13.16;100.00
73551;BME280;61816;53.582;10.096;2022-10-03T21:04:00;102098.22;;;13.12;100.00
73551;BME280;61816;53.582;10.096;2022-10-03T21:06:31;102089.09;;;12.94;100.00
73551;BME280;61816;53.582;10.096;2022-10-03T21:09:00;102092.78;;;12.83;100.00
73551;BME280;61816;53.582;10.096;2022-10-03T21:11:31;102087.63;;;12.90;100.00
73551;BME280;61816;53.582;10.096;2022-10-03T21:14:01;102082.19;;;12.90;100.00
73551;BME280;61816;53.582;10.096;2022-10-03T21:16:33;102086.22;;;12.76;100.00
73551;BME280;61816;53.582;10.096;2022-10-03T21:19:01;102085.78;;;12.81;100.00
73551;BME280;61816;53.582;10.096;2022-10-03T21:21:35;102097.09;;;12.76;100.00
73551;BME280;61816;53.582;10.096;2022-10-03T21:24:27;102090.78;;;12.75;100.00
73551;BME280;61816;53.582;10.096;2022-10-03T21:26:55;102087.06;;;12.76;100.00
73551;BME280;61816;53.582;10.096;2022-10-03T21:32:17;102091.66;;;12.86;100.00
73551;BME280;61816;53.582;10.096;2022-10-03T21:46:31;102081.50;;;12.68;100.00
73551;BME280;61816;53.582;10.096;2022-10-03T21:49:39;102084.22;;;12.59;100.00
73551;BME280;61816;53.582;10.096;2022-10-03T22:06:23;102066.75;;;12.71;100.00
73551;BME280;61816;53.582;10.096;2022-10-03T22:08:49;102065.75;;;12.82;100.00
73551;BME280;61816;53.582;10.096;2022-10-03T22:11:32;102065.34;;;12.86;100.00
73551;BME280;61816;53.582;10.096;2022-10-03T22:14:42;102061.34;;;12.81;100.00
73551;BME280;61816;53.582;10.096;2022-10-03T22:17:16;102065.06;;;12.80;100.00
73551;BME280;61816;53.582;10.096;2022-10-03T22:19:50;102068.78;;;12.79;100.00
73551;BME280;61816;53.582;10.096;2022-10-03T22:22:41;102062.63;;;12.67;100.00
73551;BME280;61816;53.582;10.096;2022-10-03T22:28:06;102063.63;;;12.75;100.00
73551;BME280;61816;53.582;10.096;2022-10-03T22:30:40;102057.34;;;12.85;100.00
73551;BME280;61816;53.582;10.096;2022-10-03T22:33:24;102055.31;;;12.87;100.00
73551;BME280;61816;53.582;10.096;2022-10-03T22:35:53;102063.91;;;12.72;100.00
73551;BME280;61816;53.582;10.096;2022-10-03T22:38:22;102065.88;;;12.90;100.00
73551;BME280;61816;53.582;10.096;2022-10-03T22:40:49;102052.72;;;12.95;100.00
73551;BME280;61816;53.582;10.096;2022-10-03T22:43:16;102059.59;;;12.99;100.00
73551;BME280;61816;53.582;10.096;2022-10-03T22:45:45;102058.75;;;12.98;100.00
73551;BME280;61816;53.582;10.096;2022-10-03T22:48:25;102064.19;;;12.98;100.00
73551;BME280;61816;53.582;10.096;2022-10-03T22:50:52;102057.91;;;12.98;100.00
73551;BME280;61816;53.582;10.096;2022-10-03T22:53:23;102059.75;;;12.88;100.00
73551;BME280;61816;53.582;10.096;2022-10-03T22:56:28;102047.59;;;12.92;100.00
73551;BME280;61816;53.582;10.096;2022-10-03T22:58:38;102048.72;;;12.99;100.00
73551;BME280;61816;53.582;10.096;2022-10-03T23:01:03;102048.75;;;12.80;100.00
73551;BME280;61816;53.582;10.096;2022-10-03T23:03:31;102047.72;;;13.00;100.00
73551;BME280;61816;53.582;10.096;2022-10-03T23:06:17;102045.84;;;12.91;100.00
73551;BME280;61816;53.582;10.096;2022-10-03T23:11:50;102045.03;;;12.81;100.00
73551;BME280;61816;53.582;10.096;2022-10-03T23:14:26;102037.28;;;12.95;100.00
73551;BME280;61816;53.582;10.096;2022-10-03T23:20:03;102040.97;;;13.14;100.00
73551;BME280;61816;53.582;10.096;2022-10-03T23:22:36;102045.41;;;13.15;100.00
73551;BME280;61816;53.582;10.096;2022-10-03T23:25:10;102037.53;;;13.21;100.00
73551;BME280;61816;53.582;10.096;2022-10-03T23:35:14;102030.44;;;12.91;100.00
73551;BME280;61816;53.582;10.096;2022-10-03T23:37:45;102026.97;;;12.99;100.00